createdAt,value
2023-03-26T00:02:06.940Z,98571.78
2023-03-26T00:04:35.588Z,98577.75
2023-03-26T00:07:05.108Z,98578.34
2023-03-26T00:09:35.152Z,98577.34
2023-03-26T00:12:03.887Z,98577.75
2023-03-26T00:14:32.649Z,98583.00
2023-03-26T00:17:01.313Z,98574.19
2023-03-26T00:19:30.145Z,98570.97
2023-03-26T00:21:58.767Z,98565.97
2023-03-26T00:24:29.617Z,98565.34
2023-03-26T00:26:59.648Z,98570.59
2023-03-26T00:29:28.786Z,98567.38
2023-03-26T00:31:57.403Z,98576.25
2023-03-26T00:34:26.802Z,98585.25
2023-03-26T00:36:55.729Z,98589.63
2023-03-26T00:39:24.441Z,98583.44
2023-03-26T00:41:54.255Z,98572.59
2023-03-26T00:44:24.613Z,98576.59
2023-03-26T00:46:53.353Z,98568.41
2023-03-26T00:49:22.007Z,98575.22
2023-03-26T00:51:51.145Z,98561.22
2023-03-26T00:54:19.833Z,98561.84
2023-03-26T00:56:48.479Z,98566.63
2023-03-26T00:59:17.556Z,98555.63
2023-03-26T01:01:47.482Z,98545.97
2023-03-26T01:04:27.548Z,98541.81
2023-03-26T01:06:58.459Z,98532.19
2023-03-26T01:09:33.869Z,98528.56
2023-03-26T01:12:03.924Z,98526.97
2023-03-26T01:14:32.606Z,98534.19
2023-03-26T01:17:05.935Z,98525.63
2023-03-26T01:19:39.090Z,98517.00
2023-03-26T01:22:11.112Z,98520.03
2023-03-26T01:24:41.917Z,98512.66
2023-03-26T01:27:19.107Z,98502.00
2023-03-26T01:29:54.177Z,98498.00
2023-03-26T01:32:37.649Z,98497.97
2023-03-26T01:35:17.234Z,98484.56
2023-03-26T01:37:58.441Z,98495.97
2023-03-26T01:40:38.518Z,98477.91
2023-03-26T01:43:11.959Z,98478.09
2023-03-26T01:45:43.564Z,98473.66
2023-03-26T01:48:13.154Z,98463.84
2023-03-26T01:50:41.804Z,98461.25
2023-03-26T01:53:12.576Z,98458.00
2023-03-26T01:55:49.750Z,98454.59
2023-03-26T01:58:25.792Z,98451.69
2023-03-26T02:00:57.922Z,98437.91
2023-03-26T02:03:29.250Z,98444.75
2023-03-26T02:06:01.504Z,98433.50
2023-03-26T02:08:35.636Z,98432.91
2023-03-26T02:11:11.533Z,98429.94
2023-03-26T02:13:41.431Z,98406.66
2023-03-26T02:16:14.267Z,98409.06
2023-03-26T02:18:43.766Z,98401.88
2023-03-26T02:21:14.399Z,98402.47
2023-03-26T02:23:46.874Z,98401.44
2023-03-26T02:26:20.169Z,98396.66
2023-03-26T02:28:48.791Z,98392.66
2023-03-26T02:31:20.127Z,98386.09
2023-03-26T02:33:49.544Z,98381.44
2023-03-26T02:36:21.903Z,98388.09
2023-03-26T02:38:51.496Z,98386.09
2023-03-26T02:41:21.559Z,98382.19
2023-03-26T02:43:50.404Z,98384.59
2023-03-26T02:46:19.060Z,98384.81
2023-03-26T02:48:47.834Z,98385.00
2023-03-26T02:51:18.210Z,98365.97
2023-03-26T02:53:47.418Z,98375.81
2023-03-26T02:56:16.141Z,98369.59
2023-03-26T02:58:46.897Z,98371.41
2023-03-26T03:01:18.541Z,98369.41
2023-03-26T03:03:48.412Z,98365.03
2023-03-26T03:06:18.825Z,98349.75
2023-03-26T03:08:47.770Z,98343.31
2023-03-26T03:11:17.910Z,98339.50
2023-03-26T03:13:47.981Z,98338.31
2023-03-26T03:16:17.208Z,98330.53
2023-03-26T03:18:46.504Z,98325.22
2023-03-26T03:21:15.225Z,98317.41
2023-03-26T03:23:43.814Z,98317.81
2023-03-26T03:26:15.515Z,98313.25
2023-03-26T03:28:45.066Z,98306.72
2023-03-26T03:31:15.024Z,98302.31
2023-03-26T03:33:44.001Z,98292.28
2023-03-26T03:36:19.751Z,98293.72
2023-03-26T03:38:49.991Z,98287.50
2023-03-26T03:41:19.209Z,98280.91
2023-03-26T03:43:47.846Z,98278.13
2023-03-26T03:46:17.896Z,98273.28
2023-03-26T03:48:49.595Z,98273.78
2023-03-26T03:51:18.307Z,98273.38
2023-03-26T03:53:47.470Z,98272.81
2023-03-26T03:56:19.068Z,98277.03
2023-03-26T03:58:47.934Z,98278.81
2023-03-26T04:01:18.639Z,98270.84
2023-03-26T04:03:47.464Z,98266.47
2023-03-26T04:06:18.979Z,98259.56
2023-03-26T04:08:47.758Z,98255.69
2023-03-26T04:11:16.472Z,98256.97
2023-03-26T04:13:45.512Z,98245.53
2023-03-26T04:16:14.308Z,98249.81
2023-03-26T04:18:45.203Z,98245.50
2023-03-26T04:21:15.882Z,98236.56
2023-03-26T04:23:45.239Z,98227.63
2023-03-26T04:26:16.859Z,98224.44
2023-03-26T04:28:48.299Z,98211.81
2023-03-26T04:31:18.827Z,98213.06
2023-03-26T04:33:48.872Z,98207.44
2023-03-26T04:36:18.040Z,98210.03
2023-03-26T04:38:49.154Z,98195.91
2023-03-26T04:41:17.735Z,98195.28
2023-03-26T04:43:50.674Z,98194.50
2023-03-26T04:46:22.303Z,98186.97
2023-03-26T04:48:52.583Z,98184.31
2023-03-26T04:51:22.488Z,98181.19
2023-03-26T04:53:53.745Z,98170.66
2023-03-26T04:56:31.667Z,98172.19
2023-03-26T04:59:02.533Z,98165.16
2023-03-26T05:01:32.068Z,98148.41
2023-03-26T05:04:02.076Z,98158.69
2023-03-26T05:06:34.230Z,98166.69
2023-03-26T05:09:03.224Z,98165.69
2023-03-26T05:11:31.906Z,98158.28
2023-03-26T05:14:00.548Z,98166.91
2023-03-26T05:16:29.535Z,98166.47
2023-03-26T05:18:58.299Z,98165.13
2023-03-26T05:21:28.264Z,98175.88
2023-03-26T05:23:56.862Z,98163.81
2023-03-26T05:26:26.026Z,98159.09
2023-03-26T05:28:54.632Z,98149.19
2023-03-26T05:31:23.364Z,98142.59
2023-03-26T05:33:52.112Z,98133.78
2023-03-26T05:36:20.714Z,98118.44
2023-03-26T05:38:52.343Z,98116.47
2023-03-26T05:41:21.006Z,98111.72
2023-03-26T05:43:49.615Z,98118.66
2023-03-26T05:46:20.281Z,98116.22
2023-03-26T05:48:48.982Z,98118.94
2023-03-26T05:51:17.581Z,98121.13
2023-03-26T05:53:46.243Z,98117.72
2023-03-26T05:56:16.276Z,98098.06
2023-03-26T05:58:45.034Z,98097.69
2023-03-26T06:01:18.496Z,98092.63
2023-03-26T06:03:47.460Z,98099.63
2023-03-26T06:06:17.594Z,98093.56
2023-03-26T06:08:48.834Z,98088.56
2023-03-26T06:11:32.795Z,98053.53
2023-03-26T06:14:01.784Z,98046.47
2023-03-26T06:16:30.414Z,98046.16
2023-03-26T06:18:59.155Z,98043.13
2023-03-26T06:21:28.077Z,98031.28
2023-03-26T06:23:56.695Z,98032.44
2023-03-26T06:26:25.740Z,98033.81
2023-03-26T06:28:55.837Z,98024.19
2023-03-26T06:31:24.585Z,98012.63
2023-03-26T06:33:53.475Z,98008.16
2023-03-26T06:36:22.108Z,98013.91
2023-03-26T06:38:50.791Z,98019.28
2023-03-26T06:41:19.435Z,98002.78
2023-03-26T06:43:48.205Z,98007.97
2023-03-26T06:46:18.741Z,98004.16
2023-03-26T06:48:47.578Z,98005.31
2023-03-26T06:51:16.285Z,97998.66
2023-03-26T06:53:44.941Z,97996.19
2023-03-26T06:56:13.535Z,97995.09
2023-03-26T06:58:42.180Z,97992.16
2023-03-26T07:01:10.838Z,97996.41
2023-03-26T07:03:41.060Z,97988.06
2023-03-26T07:06:10.423Z,97983.88
2023-03-26T07:08:39.060Z,97986.28
2023-03-26T07:11:08.062Z,97969.75
2023-03-26T07:13:37.599Z,97961.81
2023-03-26T07:16:07.025Z,97953.78
2023-03-26T07:18:35.686Z,97957.84
2023-03-26T07:21:06.662Z,97959.09
2023-03-26T07:23:36.209Z,97953.22
2023-03-26T07:26:16.642Z,97938.63
2023-03-26T07:29:04.939Z,97922.78
2023-03-26T07:31:42.064Z,97929.03
2023-03-26T07:34:18.660Z,97934.22
2023-03-26T07:36:53.364Z,97923.81
2023-03-26T07:39:33.752Z,97921.19
2023-03-26T07:42:07.712Z,97910.91
2023-03-26T07:44:47.543Z,97917.81
2023-03-26T07:47:25.842Z,97905.00
2023-03-26T07:49:55.776Z,97900.34
2023-03-26T07:52:26.685Z,97901.50
2023-03-26T07:54:55.843Z,97907.75
2023-03-26T07:57:33.205Z,97896.44
2023-03-26T08:00:08.227Z,97892.22
2023-03-26T08:02:57.268Z,97888.03
2023-03-26T08:05:28.018Z,97883.94
2023-03-26T08:08:16.467Z,97883.84
2023-03-26T08:10:59.610Z,97887.16
2023-03-26T08:13:44.109Z,97890.63
2023-03-26T08:16:25.501Z,97890.44
2023-03-26T08:18:58.125Z,97898.44
2023-03-26T08:21:29.509Z,97886.47
2023-03-26T08:24:04.825Z,97871.81
2023-03-26T08:26:38.540Z,97870.44
2023-03-26T08:29:19.574Z,97861.50
2023-03-26T08:31:49.516Z,97861.50
2023-03-26T08:34:18.198Z,97869.09
2023-03-26T08:36:47.528Z,97863.53
2023-03-26T08:39:18.161Z,97859.81
2023-03-26T08:42:17.430Z,97845.06
2023-03-26T08:45:24.196Z,97848.59
2023-03-26T08:48:34.813Z,97837.47
2023-03-26T08:51:33.878Z,97841.88
2023-03-26T08:54:19.079Z,97839.31
2023-03-26T08:56:53.981Z,97838.63
2023-03-26T09:00:08.886Z,97830.13
2023-03-26T09:03:06.272Z,97826.41
2023-03-26T09:05:54.840Z,97844.19
2023-03-26T09:08:55.226Z,97847.03
2023-03-26T09:11:47.095Z,97831.19
2023-03-26T09:14:46.152Z,97827.78
2023-03-26T09:17:44.752Z,97828.69
2023-03-26T09:20:56.312Z,97832.75
2023-03-26T09:24:06.601Z,97843.16
2023-03-26T09:27:03.976Z,97838.00
2023-03-26T09:30:16.824Z,97848.19
2023-03-26T09:33:11.894Z,97829.91
2023-03-26T09:35:52.833Z,97829.91
2023-03-26T09:38:35.829Z,97817.03
2023-03-26T09:41:11.007Z,97817.50
2023-03-26T09:44:15.879Z,97816.63
2023-03-26T09:46:50.125Z,97802.34
2023-03-26T09:49:28.624Z,97803.63
2023-03-26T09:52:13.183Z,97803.75
2023-03-26T09:55:03.685Z,97795.66
2023-03-26T09:57:53.602Z,97794.38
2023-03-26T10:00:28.637Z,97801.00
2023-03-26T10:03:12.897Z,97803.25
2023-03-26T10:05:54.678Z,97795.94
2023-03-26T10:08:32.703Z,97799.75
2023-03-26T10:11:06.509Z,97791.03
2023-03-26T10:13:42.237Z,97795.94
2023-03-26T10:16:22.626Z,97791.97
2023-03-26T10:19:05.319Z,97790.78
2023-03-26T10:21:41.411Z,97783.50
2023-03-26T10:24:27.838Z,97785.56
2023-03-26T10:27:08.971Z,97785.19
2023-03-26T10:29:51.974Z,97786.03
2023-03-26T10:32:28.277Z,97783.19
2023-03-26T10:35:22.372Z,97779.19
2023-03-26T10:38:00.155Z,97778.59
2023-03-26T10:40:34.022Z,97774.66
2023-03-26T10:43:29.203Z,97768.38
2023-03-26T10:46:14.731Z,97765.59
2023-03-26T10:49:09.813Z,97769.84
2023-03-26T10:51:48.565Z,97777.88
2023-03-26T10:54:24.388Z,97781.53
2023-03-26T10:56:53.616Z,97790.13
2023-03-26T10:59:22.362Z,97789.16
2023-03-26T11:01:57.278Z,97791.50
2023-03-26T11:04:35.634Z,97807.50
2023-03-26T11:07:11.257Z,97810.44
2023-03-26T11:09:45.297Z,97809.47
2023-03-26T11:12:26.791Z,97808.22
2023-03-26T11:15:08.871Z,97804.25
2023-03-26T11:17:44.818Z,97796.69
2023-03-26T11:20:18.605Z,97792.13
2023-03-26T11:22:57.906Z,97785.19
2023-03-26T11:25:36.095Z,97784.56
2023-03-26T11:28:13.988Z,97779.84
2023-03-26T11:30:47.754Z,97772.50
2023-03-26T11:33:19.446Z,97773.53
2023-03-26T11:35:51.196Z,97779.56
2023-03-26T11:38:24.368Z,97776.88
2023-03-26T11:40:55.819Z,97773.72
2023-03-26T11:43:27.423Z,97778.28
2023-03-26T11:45:56.305Z,97766.06
2023-03-26T11:48:28.577Z,97778.19
2023-03-26T11:51:02.522Z,97774.53
2023-03-26T11:53:34.648Z,97753.81
2023-03-26T11:56:05.673Z,97763.28
2023-03-26T11:58:38.306Z,97756.72
2023-03-26T12:01:15.345Z,97758.00
2023-03-26T12:03:44.201Z,97755.91
2023-03-26T12:06:25.549Z,97749.59
2023-03-26T12:08:56.927Z,97752.75
2023-03-26T12:11:28.047Z,97746.72
2023-03-26T12:14:00.200Z,97749.34
2023-03-26T12:16:29.409Z,97753.03
2023-03-26T12:19:03.897Z,97755.13
2023-03-26T12:21:46.067Z,97741.22
2023-03-26T12:24:28.396Z,97731.69
2023-03-26T12:27:02.192Z,97729.34
2023-03-26T12:29:34.287Z,97726.50
2023-03-26T12:32:10.094Z,97733.84
2023-03-26T12:34:39.369Z,97735.41
2023-03-26T12:37:33.056Z,97722.03
2023-03-26T12:40:17.142Z,97718.56
2023-03-26T12:44:51.112Z,97715.88
2023-03-26T12:45:44.278Z,97709.50
2023-03-26T12:48:15.494Z,97709.16
2023-03-26T12:50:57.068Z,97706.69
2023-03-26T12:53:53.532Z,97703.78
2023-03-26T12:56:27.369Z,97706.06
2023-03-26T12:59:14.129Z,97709.22
2023-03-26T13:01:50.397Z,97691.09
2023-03-26T13:04:34.309Z,97701.94
2023-03-26T13:07:06.458Z,97694.31
2023-03-26T13:09:45.819Z,97678.38
2023-03-26T13:12:25.132Z,97686.34
2023-03-26T13:15:18.803Z,97681.19
2023-03-26T13:17:55.503Z,97671.75
2023-03-26T13:20:27.215Z,97671.25
2023-03-26T13:22:59.433Z,97675.50
2023-03-26T13:25:35.229Z,97662.75
2023-03-26T13:28:21.694Z,97666.81
2023-03-26T13:30:58.533Z,97650.66
2023-03-26T13:33:43.381Z,97654.50
2023-03-26T13:36:23.718Z,97660.41
2023-03-26T13:39:07.524Z,97653.31
2023-03-26T13:41:48.283Z,97661.72
2023-03-26T13:44:24.827Z,97640.59
2023-03-26T13:46:54.562Z,97639.34
2023-03-26T13:49:29.055Z,97639.56
2023-03-26T13:51:59.823Z,97633.75
2023-03-26T13:54:31.819Z,97632.75
2023-03-26T13:57:08.551Z,97631.19
2023-03-26T13:59:40.552Z,97620.94
2023-03-26T14:02:12.369Z,97624.63
2023-03-26T14:04:43.766Z,97621.19
2023-03-26T14:07:15.804Z,97618.09
2023-03-26T14:09:48.432Z,97623.38
2023-03-26T14:12:31.470Z,97612.38
2023-03-26T14:15:02.210Z,97605.56
2023-03-26T14:17:36.405Z,97604.00
2023-03-26T14:20:50.187Z,97614.00
2023-03-26T14:23:54.155Z,97614.81
2023-03-26T14:26:30.549Z,97640.28
2023-03-26T14:29:29.012Z,97638.72
2023-03-26T14:32:07.708Z,97648.94
2023-03-26T14:34:46.734Z,97663.84
2023-03-26T14:37:34.832Z,97676.88
2023-03-26T14:40:27.028Z,97679.84
2023-03-26T14:43:05.674Z,97675.41
2023-03-26T14:45:54.045Z,97695.25
2023-03-26T14:48:42.796Z,97707.38
2023-03-26T14:51:20.594Z,97717.66
2023-03-26T14:53:51.607Z,97708.28
2023-03-26T14:56:38.667Z,97696.28
2023-03-26T14:59:54.743Z,97685.31
2023-03-26T15:03:04.062Z,97698.44
2023-03-26T15:05:49.430Z,97698.91
2023-03-26T15:08:49.109Z,97707.31
2023-03-26T15:11:25.735Z,97714.19
2023-03-26T15:14:04.877Z,97717.75
2023-03-26T15:17:10.016Z,97722.78
2023-03-26T15:19:56.255Z,97718.31
2023-03-26T15:22:40.389Z,97726.03
2023-03-26T15:25:33.195Z,97724.97
2023-03-26T15:28:35.444Z,97724.28
2023-03-26T15:31:31.061Z,97724.03
2023-03-26T15:34:30.332Z,97731.78
2023-03-26T15:37:35.239Z,97726.47
2023-03-26T15:40:36.206Z,97736.50
2023-03-26T15:43:11.325Z,97745.03
2023-03-26T15:45:42.029Z,97737.75
2023-03-26T15:48:35.239Z,97750.28
2023-03-26T15:51:26.613Z,97750.03
2023-03-26T15:54:01.648Z,97745.78
2023-03-26T15:56:49.066Z,97752.59
2023-03-26T15:59:29.429Z,97742.00
2023-03-26T16:02:03.929Z,97744.59
2023-03-26T16:04:50.685Z,97738.94
2023-03-26T16:07:47.010Z,97750.84
2023-03-26T16:10:29.119Z,97749.31
2023-03-26T16:13:18.989Z,97747.28
2023-03-26T16:15:51.626Z,97739.38
2023-03-26T16:18:27.113Z,97747.09
2023-03-26T16:20:57.188Z,97752.88
2023-03-26T16:23:29.397Z,97745.59
2023-03-26T16:26:00.366Z,97759.44
2023-03-26T16:28:35.456Z,97756.03
2023-03-26T16:31:37.356Z,97767.91
2023-03-26T16:34:23.476Z,97774.38
2023-03-26T16:36:54.098Z,97775.84
2023-03-26T16:39:24.508Z,97767.47
2023-03-26T16:41:56.949Z,97774.59
2023-03-26T16:44:44.346Z,97779.97
2023-03-26T16:47:24.328Z,97781.63
2023-03-26T16:50:08.516Z,97784.00
2023-03-26T16:52:45.449Z,97789.22
2023-03-26T16:55:20.620Z,97788.78
2023-03-26T16:57:56.148Z,97789.03
2023-03-26T17:00:37.095Z,97794.81
2023-03-26T17:03:33.764Z,97801.47
2023-03-26T17:06:06.355Z,97810.09
2023-03-26T17:08:42.571Z,97803.03
2023-03-26T17:11:22.267Z,97809.31
2023-03-26T17:14:03.170Z,97813.69
2023-03-26T17:16:36.625Z,97810.19
2023-03-26T17:19:15.245Z,97814.97
2023-03-26T17:21:52.775Z,97808.16
2023-03-26T17:24:28.682Z,97804.19
2023-03-26T17:27:02.394Z,97809.63
2023-03-26T17:29:43.748Z,97809.75
2023-03-26T17:32:15.105Z,97807.59
2023-03-26T17:34:56.904Z,97810.53
2023-03-26T17:37:47.770Z,97816.88
2023-03-26T17:40:50.982Z,97832.59
2023-03-26T17:43:43.359Z,97826.47
2023-03-26T17:46:21.538Z,97827.53
2023-03-26T17:48:58.108Z,97813.13
2023-03-26T17:51:38.716Z,97814.22
2023-03-26T17:54:09.289Z,97818.19
2023-03-26T17:56:38.835Z,97825.91
2023-03-26T17:59:11.341Z,97815.28
2023-03-26T18:01:44.139Z,97816.19
2023-03-26T18:04:18.710Z,97822.78
2023-03-26T18:07:09.547Z,97811.53
2023-03-26T18:09:49.613Z,97813.47
2023-03-26T18:12:40.799Z,97818.13
2023-03-26T18:15:22.956Z,97821.28
2023-03-26T18:17:51.733Z,97822.09
2023-03-26T18:20:24.414Z,97819.03
2023-03-26T18:22:53.465Z,97827.84
2023-03-26T18:25:26.175Z,97820.03
2023-03-26T18:27:57.376Z,97829.31
2023-03-26T18:30:26.945Z,97829.75
2023-03-26T18:33:01.972Z,97837.25
2023-03-26T18:35:42.180Z,97839.97
2023-03-26T18:38:15.509Z,97839.41
2023-03-26T18:40:44.993Z,97835.22
2023-03-26T18:43:28.657Z,97840.19
2023-03-26T18:46:04.317Z,97832.28
2023-03-26T18:48:33.017Z,97831.38
2023-03-26T18:51:05.864Z,97825.56
2023-03-26T18:53:38.826Z,97822.41
2023-03-26T18:56:20.529Z,97826.16
2023-03-26T18:58:52.472Z,97826.72
2023-03-26T19:01:25.966Z,97830.78
2023-03-26T19:03:55.474Z,97832.97
2023-03-26T19:06:25.976Z,97822.28
2023-03-26T19:08:54.864Z,97820.66
2023-03-26T19:11:23.754Z,97827.84
2023-03-26T19:14:03.249Z,97829.06
2023-03-26T19:16:36.340Z,97826.94
2023-03-26T19:19:07.010Z,97821.38
2023-03-26T19:21:37.507Z,97833.16
2023-03-26T19:24:06.849Z,97832.81
2023-03-26T19:26:36.489Z,97836.41
2023-03-26T19:29:05.512Z,97834.38
2023-03-26T19:31:35.663Z,97830.63
2023-03-26T19:34:15.552Z,97827.56
2023-03-26T19:36:58.053Z,97834.97
2023-03-26T19:39:37.122Z,97830.31
2023-03-26T19:42:07.376Z,97819.66
2023-03-26T19:44:39.485Z,97817.84
2023-03-26T19:47:13.230Z,97817.28
2023-03-26T19:49:43.341Z,97821.22
2023-03-26T19:52:15.889Z,97810.78
2023-03-26T19:54:59.430Z,97816.91
2023-03-26T19:57:30.742Z,97811.59
2023-03-26T19:59:59.635Z,97809.06
2023-03-26T20:02:29.033Z,97807.38
2023-03-26T20:04:58.189Z,97802.25
2023-03-26T20:07:35.643Z,97793.78
2023-03-26T20:10:06.472Z,97791.53
2023-03-26T20:12:35.154Z,97781.81
2023-03-26T20:18:01.584Z,97794.47
2023-03-26T20:20:30.687Z,97791.31
2023-03-26T20:23:01.483Z,97793.78
2023-03-26T20:25:32.757Z,97791.41
2023-03-26T20:28:01.601Z,97800.44
2023-03-26T20:33:12.789Z,97782.66
2023-03-26T20:35:42.721Z,97786.72
2023-03-26T20:38:12.844Z,97783.56
2023-03-26T20:40:42.325Z,97794.53
2023-03-26T20:43:13.630Z,97799.19
2023-03-26T20:45:42.703Z,97796.44
2023-03-26T20:48:11.967Z,97796.03
2023-03-26T20:50:50.451Z,97794.44
2023-03-26T20:53:21.223Z,97792.06
2023-03-26T20:55:51.540Z,97797.34
2023-03-26T20:58:31.170Z,97795.81
2023-03-26T21:01:02.556Z,97801.59
2023-03-26T21:03:31.307Z,97798.28
2023-03-26T21:06:03.472Z,97804.19
2023-03-26T21:08:37.056Z,97804.53
2023-03-26T21:11:12.479Z,97806.59
2023-03-26T21:13:44.854Z,97808.75
2023-03-26T21:16:14.475Z,97811.72
2023-03-26T21:18:43.686Z,97808.53
2023-03-26T21:21:24.412Z,97813.94
2023-03-26T21:24:00.231Z,97818.38
2023-03-26T21:26:31.696Z,97818.91
2023-03-26T21:29:00.848Z,97811.28
2023-03-26T21:31:36.465Z,97812.28
2023-03-26T21:34:06.206Z,97810.13
2023-03-26T21:36:35.466Z,97803.31
2023-03-26T21:39:06.409Z,97818.63
2023-03-26T21:41:45.828Z,97809.69
2023-03-26T21:44:15.245Z,97804.91
2023-03-26T21:46:45.500Z,97800.94
2023-03-26T21:49:16.677Z,97801.50
2023-03-26T21:51:46.343Z,97812.22
2023-03-26T21:54:27.953Z,97798.63
2023-03-26T21:57:14.092Z,97805.19
2023-03-26T21:59:47.759Z,97803.75
2023-03-26T22:02:21.245Z,97799.44
2023-03-26T22:04:53.196Z,97795.25
2023-03-26T22:07:24.780Z,97801.50
2023-03-26T22:09:55.335Z,97800.88
2023-03-26T22:12:25.531Z,97791.94
2023-03-26T22:14:54.205Z,97795.47
2023-03-26T22:17:23.678Z,97792.88
2023-03-26T22:19:52.319Z,97800.94
2023-03-26T22:22:22.098Z,97799.72
2023-03-26T22:24:50.739Z,97814.31
2023-03-26T22:27:21.059Z,97811.50
2023-03-26T22:29:50.106Z,97820.66
2023-03-26T22:32:18.768Z,97826.88
2023-03-26T22:34:47.339Z,97823.13
2023-03-26T22:37:16.128Z,97827.53
2023-03-26T22:39:44.780Z,97822.75
2023-03-26T22:42:13.882Z,97834.97
2023-03-26T22:44:43.873Z,97843.56
2023-03-26T22:47:13.595Z,97840.97
2023-03-26T22:49:42.330Z,97847.53
2023-03-26T22:52:11.155Z,97844.66
2023-03-26T22:54:39.794Z,97844.22
2023-03-26T22:57:08.500Z,97847.53
2023-03-26T22:59:37.191Z,97848.75
2023-03-26T23:02:07.262Z,97849.19
2023-03-26T23:04:37.536Z,97852.59
2023-03-26T23:07:06.701Z,97851.00
2023-03-26T23:09:36.521Z,97850.78
2023-03-26T23:12:05.794Z,97853.97
2023-03-26T23:14:34.438Z,97856.78
2023-03-26T23:17:03.629Z,97863.13
2023-03-26T23:19:34.620Z,97867.69
2023-03-26T23:22:03.200Z,97878.09
2023-03-26T23:24:31.770Z,97874.69
2023-03-26T23:27:00.362Z,97879.13
2023-03-26T23:29:30.019Z,97876.16
2023-03-26T23:31:59.692Z,97878.75
2023-03-26T23:34:28.440Z,97885.53
2023-03-26T23:36:58.447Z,97884.31
2023-03-26T23:39:28.553Z,97895.94
2023-03-26T23:41:57.158Z,97895.94
2023-03-26T23:44:25.750Z,97899.13
2023-03-26T23:46:57.923Z,97900.28
2023-03-26T23:49:26.893Z,97894.94
2023-03-26T23:51:55.559Z,97903.97
2023-03-26T23:54:25.614Z,97902.75
2023-03-26T23:56:55.000Z,97908.34
2023-03-26T23:59:23.684Z,97919.19
